sensor_id;sensor_type;location;lat;lon;timestamp;P1;durP1;ratioP1;P2;durP2;ratioP2
69953;SDS011;57276;51.364;12.376;2023-04-25T00:05:26;8.43;;;3.13;;
69953;SDS011;57276;51.364;12.376;2023-04-25T00:11:28;8.13;;;3.07;;
69953;SDS011;57276;51.364;12.376;2023-04-25T00:17:29;6.35;;;3.53;;
69953;SDS011;57276;51.364;12.376;2023-04-25T00:23:31;7.17;;;3.30;;
69953;SDS011;57276;51.364;12.376;2023-04-25T00:29:32;6.05;;;3.30;;
69953;SDS011;57276;51.364;12.376;2023-04-25T00:35:34;6.07;;;3.20;;
69953;SDS011;57276;51.364;12.376;2023-04-25T00:41:36;7.53;;;3.47;;
69953;SDS011;57276;51.364;12.376;2023-04-25T00:47:37;7.45;;;3.47;;
69953;SDS011;57276;51.364;12.376;2023-04-25T00:53:39;6.20;;;3.97;;
69953;SDS011;57276;51.364;12.376;2023-04-25T00:59:42;8.65;;;3.75;;
69953;SDS011;57276;51.364;12.376;2023-04-25T01:05:46;8.00;;;3.85;;
69953;SDS011;57276;51.364;12.376;2023-04-25T01:11:48;8.27;;;3.80;;
69953;SDS011;57276;51.364;12.376;2023-04-25T01:17:51;8.43;;;3.72;;
69953;SDS011;57276;51.364;12.376;2023-04-25T01:23:54;8.17;;;4.23;;
69953;SDS011;57276;51.364;12.376;2023-04-25T01:29:56;8.27;;;3.92;;
69953;SDS011;57276;51.364;12.376;2023-04-25T01:35:57;9.45;;;4.35;;
69953;SDS011;57276;51.364;12.376;2023-04-25T01:41:59;10.27;;;3.93;;
69953;SDS011;57276;51.364;12.376;2023-04-25T01:48:02;11.70;;;4.30;;
69953;SDS011;57276;51.364;12.376;2023-04-25T01:54:03;8.13;;;3.40;;
69953;SDS011;57276;51.364;12.376;2023-04-25T02:00:05;7.53;;;3.42;;
69953;SDS011;57276;51.364;12.376;2023-04-25T02:06:14;8.55;;;3.80;;
69953;SDS011;57276;51.364;12.376;2023-04-25T02:12:18;8.03;;;3.80;;
69953;SDS011;57276;51.364;12.376;2023-04-25T02:18:49;7.85;;;3.65;;
69953;SDS011;57276;51.364;12.376;2023-04-25T02:24:54;10.70;;;4.57;;
69953;SDS011;57276;51.364;12.376;2023-04-25T02:30:56;11.95;;;4.80;;
69953;SDS011;57276;51.364;12.376;2023-04-25T02:36:58;12.63;;;5.18;;
69953;SDS011;57276;51.364;12.376;2023-04-25T02:43:00;12.73;;;4.60;;
69953;SDS011;57276;51.364;12.376;2023-04-25T02:49:01;14.20;;;5.00;;
69953;SDS011;57276;51.364;12.376;2023-04-25T02:55:03;11.73;;;4.57;;
69953;SDS011;57276;51.364;12.376;2023-04-25T03:01:05;9.63;;;4.07;;
69953;SDS011;57276;51.364;12.376;2023-04-25T03:07:07;9.43;;;4.00;;
69953;SDS011;57276;51.364;12.376;2023-04-25T03:13:08;10.40;;;4.07;;
69953;SDS011;57276;51.364;12.376;2023-04-25T03:19:11;9.55;;;4.47;;
69953;SDS011;57276;51.364;12.376;2023-04-25T03:25:12;10.20;;;4.20;;
69953;SDS011;57276;51.364;12.376;2023-04-25T03:31:14;11.82;;;4.60;;
69953;SDS011;57276;51.364;12.376;2023-04-25T03:37:16;10.50;;;4.35;;
69953;SDS011;57276;51.364;12.376;2023-04-25T03:43:18;10.53;;;4.13;;
69953;SDS011;57276;51.364;12.376;2023-04-25T03:49:26;10.40;;;4.28;;
69953;SDS011;57276;51.364;12.376;2023-04-25T03:55:34;10.03;;;4.57;;
69953;SDS011;57276;51.364;12.376;2023-04-25T04:01:37;11.88;;;4.45;;
69953;SDS011;57276;51.364;12.376;2023-04-25T04:07:38;9.75;;;4.00;;
69953;SDS011;57276;51.364;12.376;2023-04-25T04:13:43;8.17;;;3.80;;
69953;SDS011;57276;51.364;12.376;2023-04-25T04:19:45;12.23;;;4.30;;
69953;SDS011;57276;51.364;12.376;2023-04-25T04:25:52;12.23;;;4.27;;
69953;SDS011;57276;51.364;12.376;2023-04-25T04:32:09;11.50;;;4.00;;
69953;SDS011;57276;51.364;12.376;2023-04-25T04:38:11;9.43;;;3.78;;
69953;SDS011;57276;51.364;12.376;2023-04-25T04:44:13;8.67;;;3.80;;
69953;SDS011;57276;51.364;12.376;2023-04-25T04:50:33;8.82;;;3.75;;
69953;SDS011;57276;51.364;12.376;2023-04-25T04:56:49;10.70;;;4.30;;
69953;SDS011;57276;51.364;12.376;2023-04-25T05:03:02;11.45;;;4.00;;
69953;SDS011;57276;51.364;12.376;2023-04-25T05:09:13;12.35;;;4.30;;
69953;SDS011;57276;51.364;12.376;2023-04-25T05:15:47;12.37;;;4.43;;
69953;SDS011;57276;51.364;12.376;2023-04-25T05:21:59;11.88;;;4.57;;
69953;SDS011;57276;51.364;12.376;2023-04-25T05:28:10;10.00;;;4.60;;
69953;SDS011;57276;51.364;12.376;2023-04-25T05:34:30;10.32;;;4.38;;
69953;SDS011;57276;51.364;12.376;2023-04-25T05:40:38;10.77;;;4.45;;
69953;SDS011;57276;51.364;12.376;2023-04-25T05:46:46;13.83;;;5.37;;
69953;SDS011;57276;51.364;12.376;2023-04-25T05:53:05;9.45;;;4.80;;
69953;SDS011;57276;51.364;12.376;2023-04-25T05:59:13;16.80;;;4.93;;
69953;SDS011;57276;51.364;12.376;2023-04-25T06:05:15;12.52;;;4.53;;
69953;SDS011;57276;51.364;12.376;2023-04-25T06:11:16;12.15;;;4.82;;
69953;SDS011;57276;51.364;12.376;2023-04-25T06:17:19;14.20;;;4.97;;
69953;SDS011;57276;51.364;12.376;2023-04-25T06:23:23;10.85;;;4.75;;
69953;SDS011;57276;51.364;12.376;2023-04-25T06:29:30;10.50;;;4.80;;
69953;SDS011;57276;51.364;12.376;2023-04-25T06:35:32;8.13;;;4.15;;
69953;SDS011;57276;51.364;12.376;2023-04-25T06:41:33;10.20;;;4.28;;
69953;SDS011;57276;51.364;12.376;2023-04-25T06:47:36;10.30;;;3.77;;
69953;SDS011;57276;51.364;12.376;2023-04-25T06:53:38;9.93;;;4.07;;
69953;SDS011;57276;51.364;12.376;2023-04-25T06:59:43;10.33;;;4.10;;
69953;SDS011;57276;51.364;12.376;2023-04-25T07:05:45;7.97;;;4.10;;
69953;SDS011;57276;51.364;12.376;2023-04-25T07:11:47;9.75;;;4.78;;
69953;SDS011;57276;51.364;12.376;2023-04-25T07:17:49;12.20;;;4.67;;
69953;SDS011;57276;51.364;12.376;2023-04-25T07:23:53;9.82;;;4.13;;
69953;SDS011;57276;51.364;12.376;2023-04-25T07:30:00;11.37;;;4.23;;
69953;SDS011;57276;51.364;12.376;2023-04-25T07:36:02;12.20;;;4.43;;
69953;SDS011;57276;51.364;12.376;2023-04-25T07:42:04;11.77;;;4.15;;
69953;SDS011;57276;51.364;12.376;2023-04-25T07:48:07;10.40;;;4.80;;
69953;SDS011;57276;51.364;12.376;2023-04-25T07:54:14;11.23;;;4.18;;
69953;SDS011;57276;51.364;12.376;2023-04-25T08:00:22;10.70;;;4.90;;
69953;SDS011;57276;51.364;12.376;2023-04-25T08:06:32;8.15;;;3.53;;
69953;SDS011;57276;51.364;12.376;2023-04-25T08:12:45;8.93;;;2.10;;
69953;SDS011;57276;51.364;12.376;2023-04-25T08:18:47;6.50;;;1.93;;
69953;SDS011;57276;51.364;12.376;2023-04-25T08:24:49;8.30;;;1.88;;
69953;SDS011;57276;51.364;12.376;2023-04-25T08:30:51;8.37;;;1.87;;
69953;SDS011;57276;51.364;12.376;2023-04-25T08:36:54;9.70;;;1.88;;
69953;SDS011;57276;51.364;12.376;2023-04-25T08:43:02;7.13;;;1.75;;
69953;SDS011;57276;51.364;12.376;2023-04-25T08:49:05;9.43;;;2.47;;
69953;SDS011;57276;51.364;12.376;2023-04-25T08:55:07;9.05;;;2.15;;
69953;SDS011;57276;51.364;12.376;2023-04-25T09:01:10;10.57;;;2.40;;
69953;SDS011;57276;51.364;12.376;2023-04-25T09:07:20;10.60;;;2.10;;
69953;SDS011;57276;51.364;12.376;2023-04-25T09:13:24;9.60;;;2.45;;
69953;SDS011;57276;51.364;12.376;2023-04-25T09:19:52;11.13;;;2.00;;
69953;SDS011;57276;51.364;12.376;2023-04-25T09:26:02;7.85;;;2.15;;
69953;SDS011;57276;51.364;12.376;2023-04-25T09:32:10;9.60;;;2.40;;
69953;SDS011;57276;51.364;12.376;2023-04-25T09:38:14;9.30;;;2.58;;
69953;SDS011;57276;51.364;12.376;2023-04-25T09:44:45;7.15;;;2.67;;
69953;SDS011;57276;51.364;12.376;2023-04-25T10:03:14;13.20;;;3.27;;
69953;SDS011;57276;51.364;12.376;2023-04-25T10:09:30;9.10;;;2.83;;
69953;SDS011;57276;51.364;12.376;2023-04-25T10:15:35;9.68;;;3.25;;
69953;SDS011;57276;51.364;12.376;2023-04-25T10:21:44;12.57;;;4.00;;
69953;SDS011;57276;51.364;12.376;2023-04-25T10:27:47;7.72;;;3.65;;
69953;SDS011;57276;51.364;12.376;2023-04-25T10:33:51;8.77;;;3.80;;
69953;SDS011;57276;51.364;12.376;2023-04-25T10:39:53;11.35;;;4.22;;
69953;SDS011;57276;51.364;12.376;2023-04-25T10:45:55;10.07;;;4.18;;
69953;SDS011;57276;51.364;12.376;2023-04-25T10:52:16;11.73;;;4.17;;
69953;SDS011;57276;51.364;12.376;2023-04-25T10:58:20;11.95;;;4.13;;
69953;SDS011;57276;51.364;12.376;2023-04-25T11:04:29;11.80;;;4.03;;
69953;SDS011;57276;51.364;12.376;2023-04-25T11:10:32;10.70;;;4.28;;
69953;SDS011;57276;51.364;12.376;2023-04-25T11:16:34;11.32;;;3.78;;
69953;SDS011;57276;51.364;12.376;2023-04-25T11:22:38;15.73;;;4.10;;
69953;SDS011;57276;51.364;12.376;2023-04-25T11:28:44;10.63;;;3.85;;
69953;SDS011;57276;51.364;12.376;2023-04-25T11:34:46;8.73;;;3.07;;
69953;SDS011;57276;51.364;12.376;2023-04-25T11:40:53;10.60;;;2.70;;
69953;SDS011;57276;51.364;12.376;2023-04-25T11:46:55;10.73;;;2.75;;
69953;SDS011;57276;51.364;12.376;2023-04-25T11:52:56;9.67;;;2.47;;
69953;SDS011;57276;51.364;12.376;2023-04-25T11:58:59;7.90;;;2.15;;
69953;SDS011;57276;51.364;12.376;2023-04-25T12:05:02;9.33;;;2.13;;
69953;SDS011;57276;51.364;12.376;2023-04-25T12:11:27;7.80;;;2.40;;
69953;SDS011;57276;51.364;12.376;2023-04-25T12:17:30;7.72;;;1.75;;
69953;SDS011;57276;51.364;12.376;2023-04-25T12:23:32;8.23;;;1.83;;
69953;SDS011;57276;51.364;12.376;2023-04-25T12:29:34;8.00;;;2.15;;
69953;SDS011;57276;51.364;12.376;2023-04-25T12:35:50;8.43;;;1.90;;
69953;SDS011;57276;51.364;12.376;2023-04-25T12:41:51;12.52;;;1.73;;
69953;SDS011;57276;51.364;12.376;2023-04-25T12:47:56;15.30;;;2.00;;
69953;SDS011;57276;51.364;12.376;2023-04-25T12:53:58;6.67;;;1.67;;
69953;SDS011;57276;51.364;12.376;2023-04-25T12:59:59;6.18;;;1.50;;
69953;SDS011;57276;51.364;12.376;2023-04-25T13:06:02;4.27;;;1.17;;
69953;SDS011;57276;51.364;12.376;2023-04-25T13:12:03;6.60;;;1.40;;
69953;SDS011;57276;51.364;12.376;2023-04-25T13:18:05;8.45;;;1.55;;
69953;SDS011;57276;51.364;12.376;2023-04-25T13:24:07;5.57;;;1.20;;
69953;SDS011;57276;51.364;12.376;2023-04-25T13:30:09;6.38;;;1.30;;
69953;SDS011;57276;51.364;12.376;2023-04-25T13:36:11;7.10;;;1.30;;
69953;SDS011;57276;51.364;12.376;2023-04-25T13:42:12;5.68;;;1.25;;
69953;SDS011;57276;51.364;12.376;2023-04-25T13:48:14;6.78;;;1.80;;
69953;SDS011;57276;51.364;12.376;2023-04-25T13:54:16;6.37;;;1.50;;
69953;SDS011;57276;51.364;12.376;2023-04-25T14:00:19;6.22;;;1.63;;
69953;SDS011;57276;51.364;12.376;2023-04-25T14:06:21;6.30;;;2.10;;
69953;SDS011;57276;51.364;12.376;2023-04-25T14:12:25;4.75;;;1.50;;
69953;SDS011;57276;51.364;12.376;2023-04-25T14:18:27;5.85;;;1.45;;
69953;SDS011;57276;51.364;12.376;2023-04-25T14:24:28;4.73;;;1.20;;
69953;SDS011;57276;51.364;12.376;2023-04-25T14:30:30;4.50;;;1.30;;
69953;SDS011;57276;51.364;12.376;2023-04-25T14:36:32;7.47;;;1.60;;
69953;SDS011;57276;51.364;12.376;2023-04-25T14:42:34;4.10;;;1.33;;
69953;SDS011;57276;51.364;12.376;2023-04-25T14:48:36;7.13;;;1.65;;
69953;SDS011;57276;51.364;12.376;2023-04-25T14:54:38;5.83;;;2.00;;
69953;SDS011;57276;51.364;12.376;2023-04-25T15:00:39;6.22;;;1.50;;
69953;SDS011;57276;51.364;12.376;2023-04-25T15:06:41;6.00;;;1.30;;
69953;SDS011;57276;51.364;12.376;2023-04-25T15:12:42;6.53;;;1.60;;
69953;SDS011;57276;51.364;12.376;2023-04-25T15:18:47;5.38;;;1.73;;
69953;SDS011;57276;51.364;12.376;2023-04-25T15:24:49;6.37;;;1.60;;
69953;SDS011;57276;51.364;12.376;2023-04-25T15:30:51;7.57;;;1.95;;
69953;SDS011;57276;51.364;12.376;2023-04-25T15:36:53;11.50;;;2.20;;
69953;SDS011;57276;51.364;12.376;2023-04-25T15:42:54;6.68;;;1.67;;
69953;SDS011;57276;51.364;12.376;2023-04-25T15:48:56;7.18;;;1.60;;
69953;SDS011;57276;51.364;12.376;2023-04-25T15:54:57;7.10;;;1.53;;
69953;SDS011;57276;51.364;12.376;2023-04-25T16:00:59;4.93;;;1.50;;
69953;SDS011;57276;51.364;12.376;2023-04-25T16:07:00;5.30;;;1.33;;
69953;SDS011;57276;51.364;12.376;2023-04-25T16:13:03;6.90;;;1.90;;
69953;SDS011;57276;51.364;12.376;2023-04-25T16:19:05;6.05;;;1.70;;
69953;SDS011;57276;51.364;12.376;2023-04-25T16:25:06;3.67;;;1.10;;
69953;SDS011;57276;51.364;12.376;2023-04-25T16:31:08;6.47;;;1.70;;
69953;SDS011;57276;51.364;12.376;2023-04-25T16:37:10;5.73;;;1.83;;
69953;SDS011;57276;51.364;12.376;2023-04-25T16:43:11;8.02;;;2.00;;
69953;SDS011;57276;51.364;12.376;2023-04-25T16:49:13;5.88;;;1.65;;
69953;SDS011;57276;51.364;12.376;2023-04-25T16:55:15;6.13;;;1.93;;
69953;SDS011;57276;51.364;12.376;2023-04-25T17:01:16;7.57;;;1.30;;
69953;SDS011;57276;51.364;12.376;2023-04-25T17:07:20;6.23;;;1.37;;
69953;SDS011;57276;51.364;12.376;2023-04-25T17:13:24;5.93;;;1.20;;
69953;SDS011;57276;51.364;12.376;2023-04-25T17:19:31;4.18;;;1.48;;
69953;SDS011;57276;51.364;12.376;2023-04-25T17:25:33;5.90;;;1.23;;
69953;SDS011;57276;51.364;12.376;2023-04-25T17:31:34;7.10;;;1.40;;
69953;SDS011;57276;51.364;12.376;2023-04-25T17:37:37;4.20;;;1.20;;
69953;SDS011;57276;51.364;12.376;2023-04-25T17:43:38;4.15;;;1.13;;
69953;SDS011;57276;51.364;12.376;2023-04-25T17:49:40;6.65;;;1.30;;
69953;SDS011;57276;51.364;12.376;2023-04-25T17:55:43;4.10;;;1.07;;
69953;SDS011;57276;51.364;12.376;2023-04-25T18:01:45;5.72;;;1.58;;
69953;SDS011;57276;51.364;12.376;2023-04-25T18:07:48;6.07;;;1.23;;
69953;SDS011;57276;51.364;12.376;2023-04-25T18:13:50;5.75;;;1.10;;
69953;SDS011;57276;51.364;12.376;2023-04-25T18:19:51;4.93;;;1.20;;
69953;SDS011;57276;51.364;12.376;2023-04-25T18:25:53;6.40;;;1.10;;
69953;SDS011;57276;51.364;12.376;2023-04-25T18:31:55;5.95;;;1.00;;
69953;SDS011;57276;51.364;12.376;2023-04-25T18:37:56;4.23;;;1.00;;
69953;SDS011;57276;51.364;12.376;2023-04-25T18:43:58;4.70;;;0.93;;
69953;SDS011;57276;51.364;12.376;2023-04-25T18:50:03;4.38;;;1.10;;
69953;SDS011;57276;51.364;12.376;2023-04-25T18:56:05;4.23;;;1.10;;
69953;SDS011;57276;51.364;12.376;2023-04-25T19:02:07;5.07;;;1.15;;
69953;SDS011;57276;51.364;12.376;2023-04-25T19:08:09;7.73;;;1.43;;
69953;SDS011;57276;51.364;12.376;2023-04-25T19:14:12;4.35;;;1.20;;
69953;SDS011;57276;51.364;12.376;2023-04-25T19:20:13;5.97;;;1.23;;
69953;SDS011;57276;51.364;12.376;2023-04-25T19:26:16;4.73;;;1.20;;
69953;SDS011;57276;51.364;12.376;2023-04-25T19:32:19;4.45;;;1.02;;
69953;SDS011;57276;51.364;12.376;2023-04-25T19:38:21;4.20;;;1.07;;
69953;SDS011;57276;51.364;12.376;2023-04-25T19:44:23;8.05;;;1.23;;
69953;SDS011;57276;51.364;12.376;2023-04-25T19:50:24;6.22;;;1.17;;
69953;SDS011;57276;51.364;12.376;2023-04-25T19:56:26;4.33;;;1.23;;
69953;SDS011;57276;51.364;12.376;2023-04-25T20:02:28;4.15;;;1.40;;
69953;SDS011;57276;51.364;12.376;2023-04-25T20:08:30;6.87;;;1.40;;
69953;SDS011;57276;51.364;12.376;2023-04-25T20:14:31;6.10;;;1.35;;
69953;SDS011;57276;51.364;12.376;2023-04-25T20:20:33;6.20;;;1.42;;
69953;SDS011;57276;51.364;12.376;2023-04-25T20:26:36;6.10;;;1.27;;
69953;SDS011;57276;51.364;12.376;2023-04-25T20:32:38;4.03;;;1.20;;
69953;SDS011;57276;51.364;12.376;2023-04-25T20:38:40;6.33;;;1.50;;
69953;SDS011;57276;51.364;12.376;2023-04-25T20:44:41;6.38;;;1.35;;
69953;SDS011;57276;51.364;12.376;2023-04-25T20:50:43;5.05;;;1.55;;
69953;SDS011;57276;51.364;12.376;2023-04-25T20:56:45;3.80;;;1.40;;
69953;SDS011;57276;51.364;12.376;2023-04-25T21:02:46;6.53;;;2.03;;
69953;SDS011;57276;51.364;12.376;2023-04-25T21:08:48;5.83;;;1.70;;
69953;SDS011;57276;51.364;12.376;2023-04-25T21:14:50;5.68;;;1.60;;
69953;SDS011;57276;51.364;12.376;2023-04-25T21:20:52;6.13;;;1.70;;
69953;SDS011;57276;51.364;12.376;2023-04-25T21:26:53;5.10;;;1.60;;
69953;SDS011;57276;51.364;12.376;2023-04-25T21:32:55;6.60;;;1.83;;
69953;SDS011;57276;51.364;12.376;2023-04-25T21:38:57;5.77;;;1.60;;
69953;SDS011;57276;51.364;12.376;2023-04-25T21:44:59;4.88;;;1.50;;
69953;SDS011;57276;51.364;12.376;2023-04-25T21:51:00;5.63;;;1.83;;
69953;SDS011;57276;51.364;12.376;2023-04-25T21:57:02;4.70;;;1.50;;
69953;SDS011;57276;51.364;12.376;2023-04-25T22:03:04;4.45;;;1.73;;
69953;SDS011;57276;51.364;12.376;2023-04-25T22:09:06;5.07;;;1.60;;
69953;SDS011;57276;51.364;12.376;2023-04-25T22:15:07;9.57;;;2.17;;
69953;SDS011;57276;51.364;12.376;2023-04-25T22:21:09;4.18;;;1.73;;
69953;SDS011;57276;51.364;12.376;2023-04-25T22:27:11;6.33;;;1.70;;
69953;SDS011;57276;51.364;12.376;2023-04-25T22:33:12;4.55;;;1.42;;
69953;SDS011;57276;51.364;12.376;2023-04-25T22:39:14;6.10;;;1.90;;
69953;SDS011;57276;51.364;12.376;2023-04-25T22:45:16;4.78;;;1.63;;
69953;SDS011;57276;51.364;12.376;2023-04-25T22:51:18;9.13;;;3.40;;
69953;SDS011;57276;51.364;12.376;2023-04-25T22:57:20;4.47;;;1.80;;
69953;SDS011;57276;51.364;12.376;2023-04-25T23:03:21;5.40;;;1.88;;
69953;SDS011;57276;51.364;12.376;2023-04-25T23:09:23;4.90;;;2.27;;
69953;SDS011;57276;51.364;12.376;2023-04-25T23:15:28;6.65;;;2.00;;
69953;SDS011;57276;51.364;12.376;2023-04-25T23:21:31;6.10;;;1.98;;
69953;SDS011;57276;51.364;12.376;2023-04-25T23:27:33;5.30;;;1.70;;
69953;SDS011;57276;51.364;12.376;2023-04-25T23:33:35;4.85;;;1.58;;
69953;SDS011;57276;51.364;12.376;2023-04-25T23:39:36;7.23;;;2.10;;
69953;SDS011;57276;51.364;12.376;2023-04-25T23:45:38;4.60;;;1.58;;
69953;SDS011;57276;51.364;12.376;2023-04-25T23:51:40;5.15;;;1.60;;
69953;SDS011;57276;51.364;12.376;2023-04-25T23:57:42;5.73;;;1.90;;
